罗盘
风向 的 Buttonville Municipal Airport 3/21
风: 2 kt, 1 beaufort

2 kt

1 kt
改变
0 5.000 10.000 15.000 20.000
BKN 14.000 ft
OVC 16.000 ft
METAR CYTZ 170600Z AUTO VRB02KT 9SM BKN140 OVC160 21/14 A3006 RMK SLP180 DENSITY ALT 900FT

METAR Buttonville Municipal Airport - CYKZ/YKZ

Buttonville Municipal Airport是Toronto,加拿大中的中型机场。 该机场有2条跑道: 3/21 和 15/33. 该领域的国际民航组织标志是CYKZ 它的国际航空运输协会代码是YKZ.

这份报告是针对2022年8月17日 2:00 上午, 当地时间在比利·畢曉普多倫多市機場进行的。

机场观察

可变方向的风很小或没有风。

可见度为9 mi。

有碎云在14.000 ft的高度 和 乌云密布在16.000 ft的高度。 破损或更高的上限为14.000 ft。

温度和风寒是70 °F。 露点为57 °F,相对湿度为64%。 海平面上的气压为30,06 inHg (QNH)。

白天

今天,太阳从6:24 上午升起,在8:18 下午降落。 这适用于Buttonville Municipal Airport,世界夏令时可能有所不同。 当地时间与世界标准时间之间的时差为-4 小时。 夏令时目前正在进行中。

公司介绍

在这个机场,你可以找到飞行学校。 本场上唯一已知的公司是Toronto Airways。

体会

到Vliegles.nl去找飞行课程,跳伞和其他飞行体验。 浏览页面,了解Buttonville Municipal Airport附近所有可用的活动。 你也可以使用搜索功能来寻找你所在地附近的特定飞行课程、跳伞或其他飞行体验。

跑道

Id 标题 侧风 逆风 侧风 %
3/21 033°-213° 1 kt 2 kt 54 %
15/33 142°-322° 1 kt 2 kt 62 %

逆风成分最大的方向会被突出显示,并用于横风计算。 这并不一定意味着这个方向在使用。

乌云

14.000 ft BKN 碎云
16.000 ft OVC 乌云密布

温度 & 天气

温度 70 °F
露点 57 °F
相对湿度 64%
Kp-index 1  

评论

SLP180海平面压力为30,06 inHg (30,06 inHg)
DENSITY ALT 900FT

白天

日出
6:24 上午 (3h 32m)
中午
1:21 下午
日落
8:18 下午

小工具

你想在你的网站上有一个关于Buttonville Municipal Airport的当前航空天气(METAR)的小部件吗?

</> 显示HTML代码

我们和第三方通过cookies跟踪您在我们网站上的上网行为。如果您继续,我们认为您同意我们的cookie政策。 了解更多